sensor_id;sensor_type;location;lat;lon;timestamp;P1;durP1;ratioP1;P2;durP2;ratioP2
13222;SDS011;6676;45.192;5.722;2023-02-08T00:01:36;13.88;;;9.30;;
13222;SDS011;6676;45.192;5.722;2023-02-08T00:07:09;13.75;;;9.83;;
13222;SDS011;6676;45.192;5.722;2023-02-08T00:10:01;14.25;;;9.25;;
13222;SDS011;6676;45.192;5.722;2023-02-08T00:12:54;13.58;;;8.68;;
13222;SDS011;6676;45.192;5.722;2023-02-08T00:15:45;15.65;;;9.20;;
13222;SDS011;6676;45.192;5.722;2023-02-08T00:21:17;11.85;;;8.65;;
13222;SDS011;6676;45.192;5.722;2023-02-08T00:24:08;12.70;;;8.65;;
13222;SDS011;6676;45.192;5.722;2023-02-08T00:27:00;16.82;;;8.78;;
13222;SDS011;6676;45.192;5.722;2023-02-08T00:29:51;12.55;;;7.97;;
13222;SDS011;6676;45.192;5.722;2023-02-08T00:35:22;12.13;;;8.13;;
13222;SDS011;6676;45.192;5.722;2023-02-08T00:38:14;11.40;;;8.05;;
13222;SDS011;6676;45.192;5.722;2023-02-08T00:41:05;11.73;;;7.70;;
13222;SDS011;6676;45.192;5.722;2023-02-08T00:43:57;14.35;;;8.70;;
13222;SDS011;6676;45.192;5.722;2023-02-08T00:50:56;14.05;;;9.55;;
13222;SDS011;6676;45.192;5.722;2023-02-08T00:56:38;13.58;;;7.97;;
13222;SDS011;6676;45.192;5.722;2023-02-08T00:59:30;10.72;;;7.15;;
13222;SDS011;6676;45.192;5.722;2023-02-08T01:02:21;10.53;;;7.05;;
13222;SDS011;6676;45.192;5.722;2023-02-08T01:05:13;10.98;;;7.83;;
13222;SDS011;6676;45.192;5.722;2023-02-08T01:08:05;10.23;;;6.78;;
13222;SDS011;6676;45.192;5.722;2023-02-08T01:11:01;10.32;;;7.53;;
13222;SDS011;6676;45.192;5.722;2023-02-08T01:13:55;9.15;;;7.35;;
13222;SDS011;6676;45.192;5.722;2023-02-08T01:16:46;11.75;;;7.65;;
13222;SDS011;6676;45.192;5.722;2023-02-08T01:19:39;12.53;;;8.23;;
13222;SDS011;6676;45.192;5.722;2023-02-08T01:35:56;10.00;;;6.80;;
13222;SDS011;6676;45.192;5.722;2023-02-08T01:38:48;10.35;;;7.30;;
13222;SDS011;6676;45.192;5.722;2023-02-08T01:41:40;13.05;;;8.43;;
13222;SDS011;6676;45.192;5.722;2023-02-08T01:47:48;13.48;;;8.80;;
13222;SDS011;6676;45.192;5.722;2023-02-08T01:50:43;13.20;;;8.88;;
13222;SDS011;6676;45.192;5.722;2023-02-08T01:53:30;13.88;;;9.55;;
13222;SDS011;6676;45.192;5.722;2023-02-08T01:56:25;13.03;;;8.98;;
13222;SDS011;6676;45.192;5.722;2023-02-08T02:02:05;15.32;;;9.80;;
13222;SDS011;6676;45.192;5.722;2023-02-08T02:05:00;13.68;;;8.70;;
13222;SDS011;6676;45.192;5.722;2023-02-08T02:07:52;12.37;;;9.40;;
13222;SDS011;6676;45.192;5.722;2023-02-08T02:10:35;12.30;;;8.75;;
13222;SDS011;6676;45.192;5.722;2023-02-08T02:13:28;10.90;;;8.33;;
13222;SDS011;6676;45.192;5.722;2023-02-08T02:16:21;14.10;;;8.70;;
13222;SDS011;6676;45.192;5.722;2023-02-08T02:19:14;14.20;;;9.10;;
13222;SDS011;6676;45.192;5.722;2023-02-08T02:22:13;13.38;;;9.05;;
13222;SDS011;6676;45.192;5.722;2023-02-08T02:25:36;14.75;;;9.30;;
13222;SDS011;6676;45.192;5.722;2023-02-08T02:29:00;13.80;;;9.45;;
13222;SDS011;6676;45.192;5.722;2023-02-08T02:35:21;12.18;;;8.75;;
13222;SDS011;6676;45.192;5.722;2023-02-08T02:38:17;12.28;;;8.55;;
13222;SDS011;6676;45.192;5.722;2023-02-08T02:41:12;13.55;;;8.98;;
13222;SDS011;6676;45.192;5.722;2023-02-08T02:44:13;10.35;;;8.18;;
13222;SDS011;6676;45.192;5.722;2023-02-08T02:47:06;11.83;;;8.35;;
13222;SDS011;6676;45.192;5.722;2023-02-08T02:50:01;11.68;;;8.90;;
13222;SDS011;6676;45.192;5.722;2023-02-08T02:52:57;11.65;;;8.33;;
13222;SDS011;6676;45.192;5.722;2023-02-08T03:01:20;10.40;;;7.72;;
13222;SDS011;6676;45.192;5.722;2023-02-08T03:04:14;12.18;;;8.10;;
13222;SDS011;6676;45.192;5.722;2023-02-08T03:07:09;11.12;;;7.47;;
13222;SDS011;6676;45.192;5.722;2023-02-08T03:11:19;12.15;;;8.10;;
13222;SDS011;6676;45.192;5.722;2023-02-08T03:14:22;12.55;;;8.00;;
13222;SDS011;6676;45.192;5.722;2023-02-08T03:23:14;14.75;;;9.08;;
13222;SDS011;6676;45.192;5.722;2023-02-08T03:26:10;14.50;;;8.90;;
13222;SDS011;6676;45.192;5.722;2023-02-08T03:29:07;14.98;;;9.18;;
13222;SDS011;6676;45.192;5.722;2023-02-08T03:32:01;12.75;;;8.83;;
13222;SDS011;6676;45.192;5.722;2023-02-08T03:34:56;11.40;;;8.55;;
13222;SDS011;6676;45.192;5.722;2023-02-08T03:37:52;12.23;;;7.97;;
13222;SDS011;6676;45.192;5.722;2023-02-08T03:40:47;12.60;;;8.58;;
13222;SDS011;6676;45.192;5.722;2023-02-08T03:46:20;11.93;;;8.63;;
13222;SDS011;6676;45.192;5.722;2023-02-08T03:49:12;10.35;;;8.00;;
13222;SDS011;6676;45.192;5.722;2023-02-08T03:52:07;10.50;;;7.33;;
13222;SDS011;6676;45.192;5.722;2023-02-08T03:55:00;11.63;;;7.37;;
13222;SDS011;6676;45.192;5.722;2023-02-08T03:57:55;9.18;;;7.00;;
13222;SDS011;6676;45.192;5.722;2023-02-08T04:00:51;12.07;;;7.03;;
13222;SDS011;6676;45.192;5.722;2023-02-08T04:04:09;11.35;;;7.83;;
13222;SDS011;6676;45.192;5.722;2023-02-08T04:07:04;12.25;;;8.35;;
13222;SDS011;6676;45.192;5.722;2023-02-08T04:09:55;11.57;;;8.15;;
13222;SDS011;6676;45.192;5.722;2023-02-08T04:12:47;10.88;;;8.23;;
13222;SDS011;6676;45.192;5.722;2023-02-08T04:15:39;11.08;;;7.67;;
13222;SDS011;6676;45.192;5.722;2023-02-08T04:18:31;12.28;;;7.78;;
13222;SDS011;6676;45.192;5.722;2023-02-08T04:21:12;12.82;;;7.75;;
13222;SDS011;6676;45.192;5.722;2023-02-08T04:24:06;11.93;;;7.47;;
13222;SDS011;6676;45.192;5.722;2023-02-08T04:26:57;11.43;;;7.90;;
13222;SDS011;6676;45.192;5.722;2023-02-08T04:29:38;10.93;;;7.20;;
13222;SDS011;6676;45.192;5.722;2023-02-08T04:32:30;10.20;;;7.65;;
13222;SDS011;6676;45.192;5.722;2023-02-08T04:35:21;12.88;;;7.37;;
13222;SDS011;6676;45.192;5.722;2023-02-08T04:38:13;11.03;;;7.10;;
13222;SDS011;6676;45.192;5.722;2023-02-08T04:41:05;10.75;;;7.10;;
13222;SDS011;6676;45.192;5.722;2023-02-08T04:43:50;10.43;;;7.42;;
13222;SDS011;6676;45.192;5.722;2023-02-08T04:46:42;9.95;;;7.22;;
13222;SDS011;6676;45.192;5.722;2023-02-08T04:49:34;15.00;;;8.05;;
13222;SDS011;6676;45.192;5.722;2023-02-08T04:52:26;12.30;;;8.85;;
13222;SDS011;6676;45.192;5.722;2023-02-08T04:55:17;14.45;;;8.93;;
13222;SDS011;6676;45.192;5.722;2023-02-08T04:58:08;12.47;;;9.05;;
13222;SDS011;6676;45.192;5.722;2023-02-08T05:01:00;11.28;;;8.05;;
13222;SDS011;6676;45.192;5.722;2023-02-08T05:03:53;11.45;;;8.40;;
13222;SDS011;6676;45.192;5.722;2023-02-08T05:06:44;11.88;;;8.68;;
13222;SDS011;6676;45.192;5.722;2023-02-08T05:09:36;12.88;;;9.00;;
13222;SDS011;6676;45.192;5.722;2023-02-08T05:16:55;12.30;;;9.15;;
13222;SDS011;6676;45.192;5.722;2023-02-08T05:19:46;11.48;;;9.15;;
13222;SDS011;6676;45.192;5.722;2023-02-08T05:22:38;14.70;;;8.65;;
13222;SDS011;6676;45.192;5.722;2023-02-08T05:25:30;13.65;;;9.18;;
13222;SDS011;6676;45.192;5.722;2023-02-08T05:31:07;12.98;;;9.25;;
13222;SDS011;6676;45.192;5.722;2023-02-08T05:34:00;12.85;;;9.15;;
13222;SDS011;6676;45.192;5.722;2023-02-08T05:36:52;12.10;;;8.45;;
13222;SDS011;6676;45.192;5.722;2023-02-08T05:42:25;11.95;;;8.68;;
13222;SDS011;6676;45.192;5.722;2023-02-08T05:45:16;13.43;;;9.83;;
13222;SDS011;6676;45.192;5.722;2023-02-08T05:48:08;12.30;;;8.98;;
13222;SDS011;6676;45.192;5.722;2023-02-08T05:51:00;12.33;;;9.23;;
13222;SDS011;6676;45.192;5.722;2023-02-08T05:53:52;12.23;;;8.80;;
13222;SDS011;6676;45.192;5.722;2023-02-08T05:56:43;13.25;;;9.25;;
13222;SDS011;6676;45.192;5.722;2023-02-08T06:02:14;12.82;;;9.38;;
13222;SDS011;6676;45.192;5.722;2023-02-08T06:05:06;14.83;;;9.28;;
13222;SDS011;6676;45.192;5.722;2023-02-08T06:07:58;11.97;;;9.23;;
13222;SDS011;6676;45.192;5.722;2023-02-08T06:10:50;13.00;;;9.60;;
13222;SDS011;6676;45.192;5.722;2023-02-08T06:13:29;14.28;;;9.53;;
13222;SDS011;6676;45.192;5.722;2023-02-08T06:16:21;13.88;;;9.65;;
13222;SDS011;6676;45.192;5.722;2023-02-08T06:19:02;13.05;;;9.18;;
13222;SDS011;6676;45.192;5.722;2023-02-08T06:21:53;11.55;;;9.58;;
13222;SDS011;6676;45.192;5.722;2023-02-08T06:28:02;14.07;;;9.30;;
13222;SDS011;6676;45.192;5.722;2023-02-08T06:30:55;13.35;;;9.15;;
13222;SDS011;6676;45.192;5.722;2023-02-08T06:33:47;13.65;;;9.03;;
13222;SDS011;6676;45.192;5.722;2023-02-08T06:36:38;13.03;;;8.93;;
13222;SDS011;6676;45.192;5.722;2023-02-08T06:39:30;11.50;;;8.98;;
13222;SDS011;6676;45.192;5.722;2023-02-08T06:42:20;11.97;;;9.60;;
13222;SDS011;6676;45.192;5.722;2023-02-08T06:45:11;13.80;;;9.70;;
13222;SDS011;6676;45.192;5.722;2023-02-08T06:48:03;15.13;;;9.65;;
13222;SDS011;6676;45.192;5.722;2023-02-08T06:50:54;15.65;;;9.73;;
13222;SDS011;6676;45.192;5.722;2023-02-08T06:53:38;16.77;;;10.80;;
13222;SDS011;6676;45.192;5.722;2023-02-08T06:56:30;12.88;;;9.95;;
13222;SDS011;6676;45.192;5.722;2023-02-08T06:59:21;12.07;;;9.65;;
13222;SDS011;6676;45.192;5.722;2023-02-08T07:02:14;12.98;;;9.53;;
13222;SDS011;6676;45.192;5.722;2023-02-08T07:05:07;16.10;;;10.08;;
13222;SDS011;6676;45.192;5.722;2023-02-08T07:08:02;15.93;;;10.55;;
13222;SDS011;6676;45.192;5.722;2023-02-08T07:10:54;16.95;;;10.60;;
13222;SDS011;6676;45.192;5.722;2023-02-08T07:16:31;16.15;;;10.20;;
13222;SDS011;6676;45.192;5.722;2023-02-08T07:19:23;16.87;;;10.58;;
13222;SDS011;6676;45.192;5.722;2023-02-08T07:24:59;17.55;;;10.48;;
13222;SDS011;6676;45.192;5.722;2023-02-08T07:27:51;17.45;;;10.88;;
13222;SDS011;6676;45.192;5.722;2023-02-08T07:30:31;17.07;;;11.08;;
13222;SDS011;6676;45.192;5.722;2023-02-08T07:33:23;13.68;;;9.55;;
13222;SDS011;6676;45.192;5.722;2023-02-08T07:36:15;14.23;;;9.98;;
13222;SDS011;6676;45.192;5.722;2023-02-08T07:39:07;13.70;;;9.88;;
13222;SDS011;6676;45.192;5.722;2023-02-08T07:42:03;17.73;;;11.28;;
13222;SDS011;6676;45.192;5.722;2023-02-08T07:44:56;20.35;;;13.43;;
13222;SDS011;6676;45.192;5.722;2023-02-08T07:47:47;17.37;;;11.35;;
13222;SDS011;6676;45.192;5.722;2023-02-08T07:50:39;19.75;;;12.13;;
13222;SDS011;6676;45.192;5.722;2023-02-08T07:53:31;18.60;;;11.57;;
13222;SDS011;6676;45.192;5.722;2023-02-08T07:56:23;16.52;;;11.85;;
13222;SDS011;6676;45.192;5.722;2023-02-08T07:59:15;16.40;;;11.30;;
13222;SDS011;6676;45.192;5.722;2023-02-08T08:01:59;19.92;;;14.35;;
13222;SDS011;6676;45.192;5.722;2023-02-08T08:04:51;18.10;;;12.33;;
13222;SDS011;6676;45.192;5.722;2023-02-08T08:10:22;16.82;;;11.55;;
13222;SDS011;6676;45.192;5.722;2023-02-08T08:13:14;18.00;;;11.22;;
13222;SDS011;6676;45.192;5.722;2023-02-08T08:16:06;19.12;;;12.28;;
13222;SDS011;6676;45.192;5.722;2023-02-08T08:18:58;18.15;;;11.80;;
13222;SDS011;6676;45.192;5.722;2023-02-08T08:21:38;23.70;;;12.30;;
13222;SDS011;6676;45.192;5.722;2023-02-08T08:24:30;16.42;;;11.20;;
13222;SDS011;6676;45.192;5.722;2023-02-08T08:27:23;15.30;;;11.08;;
13222;SDS011;6676;45.192;5.722;2023-02-08T08:30:17;20.00;;;12.10;;
13222;SDS011;6676;45.192;5.722;2023-02-08T08:33:12;17.17;;;11.50;;
13222;SDS011;6676;45.192;5.722;2023-02-08T08:36:06;19.98;;;11.93;;
13222;SDS011;6676;45.192;5.722;2023-02-08T08:38:58;18.52;;;12.47;;
13222;SDS011;6676;45.192;5.722;2023-02-08T08:41:49;16.45;;;11.57;;
13222;SDS011;6676;45.192;5.722;2023-02-08T08:47:21;18.65;;;12.03;;
13222;SDS011;6676;45.192;5.722;2023-02-08T08:50:13;18.67;;;13.22;;
13222;SDS011;6676;45.192;5.722;2023-02-08T08:55:43;21.37;;;12.55;;
13222;SDS011;6676;45.192;5.722;2023-02-08T09:01:14;19.55;;;12.93;;
13222;SDS011;6676;45.192;5.722;2023-02-08T09:04:06;19.48;;;12.65;;
13222;SDS011;6676;45.192;5.722;2023-02-08T09:06:57;20.57;;;13.70;;
13222;SDS011;6676;45.192;5.722;2023-02-08T09:12:19;19.23;;;13.05;;
13222;SDS011;6676;45.192;5.722;2023-02-08T09:15:11;24.32;;;12.95;;
13222;SDS011;6676;45.192;5.722;2023-02-08T09:18:03;19.27;;;12.63;;
13222;SDS011;6676;45.192;5.722;2023-02-08T09:20:57;38.08;;;24.10;;
13222;SDS011;6676;45.192;5.722;2023-02-08T09:23:50;19.05;;;12.95;;
13222;SDS011;6676;45.192;5.722;2023-02-08T09:26:42;19.45;;;12.63;;
13222;SDS011;6676;45.192;5.722;2023-02-08T09:32:12;20.17;;;13.30;;
13222;SDS011;6676;45.192;5.722;2023-02-08T09:35:08;22.50;;;13.35;;
13222;SDS011;6676;45.192;5.722;2023-02-08T09:38:00;18.25;;;12.75;;
13222;SDS011;6676;45.192;5.722;2023-02-08T09:40:56;25.30;;;13.93;;
13222;SDS011;6676;45.192;5.722;2023-02-08T09:46:29;19.82;;;14.13;;
13222;SDS011;6676;45.192;5.722;2023-02-08T09:49:23;24.07;;;15.05;;
13222;SDS011;6676;45.192;5.722;2023-02-08T09:55:35;21.68;;;14.07;;
13222;SDS011;6676;45.192;5.722;2023-02-08T09:58:29;21.55;;;14.30;;
13222;SDS011;6676;45.192;5.722;2023-02-08T10:01:14;21.75;;;14.20;;
13222;SDS011;6676;45.192;5.722;2023-02-08T10:04:11;21.97;;;14.65;;
13222;SDS011;6676;45.192;5.722;2023-02-08T10:06:51;16.75;;;13.18;;
13222;SDS011;6676;45.192;5.722;2023-02-08T10:09:43;22.07;;;14.70;;
13222;SDS011;6676;45.192;5.722;2023-02-08T10:15:47;23.20;;;15.00;;
13222;SDS011;6676;45.192;5.722;2023-02-08T10:18:31;19.23;;;13.83;;
13222;SDS011;6676;45.192;5.722;2023-02-08T10:21:21;21.42;;;14.18;;
13222;SDS011;6676;45.192;5.722;2023-02-08T10:24:21;21.00;;;12.73;;
13222;SDS011;6676;45.192;5.722;2023-02-08T10:27:04;17.60;;;13.65;;
13222;SDS011;6676;45.192;5.722;2023-02-08T10:33:11;19.75;;;12.60;;
13222;SDS011;6676;45.192;5.722;2023-02-08T10:36:10;17.92;;;12.23;;
13222;SDS011;6676;45.192;5.722;2023-02-08T10:38:52;21.37;;;16.52;;
13222;SDS011;6676;45.192;5.722;2023-02-08T10:44:29;19.07;;;13.35;;
13222;SDS011;6676;45.192;5.722;2023-02-08T10:47:34;21.20;;;13.18;;
13222;SDS011;6676;45.192;5.722;2023-02-08T10:50:06;19.32;;;13.70;;
13222;SDS011;6676;45.192;5.722;2023-02-08T10:53:03;17.87;;;13.20;;
13222;SDS011;6676;45.192;5.722;2023-02-08T10:55:55;22.15;;;14.13;;
13222;SDS011;6676;45.192;5.722;2023-02-08T10:58:36;18.12;;;13.58;;
13222;SDS011;6676;45.192;5.722;2023-02-08T11:01:29;24.90;;;14.55;;
13222;SDS011;6676;45.192;5.722;2023-02-08T11:07:00;17.50;;;13.75;;
13222;SDS011;6676;45.192;5.722;2023-02-08T11:10:13;20.23;;;15.17;;
13222;SDS011;6676;45.192;5.722;2023-02-08T11:13:14;20.10;;;13.78;;
13222;SDS011;6676;45.192;5.722;2023-02-08T11:16:08;21.25;;;13.85;;
13222;SDS011;6676;45.192;5.722;2023-02-08T11:21:39;21.42;;;14.03;;
13222;SDS011;6676;45.192;5.722;2023-02-08T11:24:26;20.48;;;14.87;;
13222;SDS011;6676;45.192;5.722;2023-02-08T11:27:29;18.65;;;13.35;;
13222;SDS011;6676;45.192;5.722;2023-02-08T11:30:22;18.20;;;12.45;;
13222;SDS011;6676;45.192;5.722;2023-02-08T11:33:16;16.35;;;12.40;;
13222;SDS011;6676;45.192;5.722;2023-02-08T11:36:11;20.35;;;12.15;;
13222;SDS011;6676;45.192;5.722;2023-02-08T11:39:13;16.40;;;12.00;;
13222;SDS011;6676;45.192;5.722;2023-02-08T11:41:58;19.95;;;13.08;;
13222;SDS011;6676;45.192;5.722;2023-02-08T11:44:51;17.32;;;12.68;;
13222;SDS011;6676;45.192;5.722;2023-02-08T11:47:54;18.00;;;13.28;;
13222;SDS011;6676;45.192;5.722;2023-02-08T11:50:36;17.50;;;13.28;;
13222;SDS011;6676;45.192;5.722;2023-02-08T11:53:34;19.23;;;14.18;;
13222;SDS011;6676;45.192;5.722;2023-02-08T11:56:16;23.70;;;14.25;;
13222;SDS011;6676;45.192;5.722;2023-02-08T12:01:57;20.30;;;13.83;;
13222;SDS011;6676;45.192;5.722;2023-02-08T12:04:50;19.30;;;14.45;;
13222;SDS011;6676;45.192;5.722;2023-02-08T12:07:47;20.43;;;14.33;;
13222;SDS011;6676;45.192;5.722;2023-02-08T12:17:01;23.80;;;14.98;;
13222;SDS011;6676;45.192;5.722;2023-02-08T12:26:43;22.48;;;14.98;;
13222;SDS011;6676;45.192;5.722;2023-02-08T12:29:42;22.35;;;16.10;;
13222;SDS011;6676;45.192;5.722;2023-02-08T12:32:40;21.85;;;15.53;;
13222;SDS011;6676;45.192;5.722;2023-02-08T12:38:46;22.32;;;16.37;;
13222;SDS011;6676;45.192;5.722;2023-02-08T12:45:18;22.37;;;16.65;;
13222;SDS011;6676;45.192;5.722;2023-02-08T12:48:21;21.33;;;16.20;;
13222;SDS011;6676;45.192;5.722;2023-02-08T12:51:20;23.70;;;16.45;;
13222;SDS011;6676;45.192;5.722;2023-02-08T12:54:15;22.17;;;15.28;;
13222;SDS011;6676;45.192;5.722;2023-02-08T12:57:10;23.45;;;16.52;;
13222;SDS011;6676;45.192;5.722;2023-02-08T13:00:05;22.82;;;16.45;;
13222;SDS011;6676;45.192;5.722;2023-02-08T13:03:04;21.05;;;16.67;;
13222;SDS011;6676;45.192;5.722;2023-02-08T13:05:58;21.50;;;16.90;;
13222;SDS011;6676;45.192;5.722;2023-02-08T13:08:53;22.90;;;16.65;;
13222;SDS011;6676;45.192;5.722;2023-02-08T13:11:47;20.85;;;16.10;;
13222;SDS011;6676;45.192;5.722;2023-02-08T13:14:45;24.10;;;16.85;;
13222;SDS011;6676;45.192;5.722;2023-02-08T13:17:40;25.30;;;17.02;;
13222;SDS011;6676;45.192;5.722;2023-02-08T13:20:37;22.40;;;17.50;;
13222;SDS011;6676;45.192;5.722;2023-02-08T13:23:19;20.85;;;15.95;;
13222;SDS011;6676;45.192;5.722;2023-02-08T13:26:15;25.40;;;16.73;;
13222;SDS011;6676;45.192;5.722;2023-02-08T13:29:14;22.42;;;16.30;;
13222;SDS011;6676;45.192;5.722;2023-02-08T13:32:10;24.50;;;17.40;;
13222;SDS011;6676;45.192;5.722;2023-02-08T13:35:04;23.60;;;17.02;;
13222;SDS011;6676;45.192;5.722;2023-02-08T13:37:59;23.52;;;15.45;;
13222;SDS011;6676;45.192;5.722;2023-02-08T13:41:02;20.82;;;15.53;;
13222;SDS011;6676;45.192;5.722;2023-02-08T13:43:57;20.60;;;15.63;;
13222;SDS011;6676;45.192;5.722;2023-02-08T13:46:51;22.07;;;15.78;;
13222;SDS011;6676;45.192;5.722;2023-02-08T13:49:51;22.15;;;15.08;;
13222;SDS011;6676;45.192;5.722;2023-02-08T13:52:47;20.85;;;15.45;;
13222;SDS011;6676;45.192;5.722;2023-02-08T13:55:58;23.73;;;16.03;;
13222;SDS011;6676;45.192;5.722;2023-02-08T14:08:39;21.73;;;16.97;;
13222;SDS011;6676;45.192;5.722;2023-02-08T14:11:34;21.33;;;15.98;;
13222;SDS011;6676;45.192;5.722;2023-02-08T14:14:27;24.20;;;15.30;;
13222;SDS011;6676;45.192;5.722;2023-02-08T14:17:21;16.87;;;13.43;;
13222;SDS011;6676;45.192;5.722;2023-02-08T14:20:18;19.95;;;15.63;;
13222;SDS011;6676;45.192;5.722;2023-02-08T14:23:20;19.05;;;14.63;;
13222;SDS011;6676;45.192;5.722;2023-02-08T14:26:17;17.60;;;14.15;;
13222;SDS011;6676;45.192;5.722;2023-02-08T14:29:18;20.82;;;14.65;;
13222;SDS011;6676;45.192;5.722;2023-02-08T14:32:18;20.75;;;14.85;;
13222;SDS011;6676;45.192;5.722;2023-02-08T14:35:16;24.20;;;14.43;;
13222;SDS011;6676;45.192;5.722;2023-02-08T14:45:02;16.77;;;13.10;;
13222;SDS011;6676;45.192;5.722;2023-02-08T14:47:56;14.65;;;12.28;;
13222;SDS011;6676;45.192;5.722;2023-02-08T15:07:11;17.98;;;13.38;;
13222;SDS011;6676;45.192;5.722;2023-02-08T15:10:11;25.45;;;14.07;;
13222;SDS011;6676;45.192;5.722;2023-02-08T15:13:04;16.42;;;13.05;;
13222;SDS011;6676;45.192;5.722;2023-02-08T15:15:58;19.52;;;12.75;;
13222;SDS011;6676;45.192;5.722;2023-02-08T15:18:50;16.95;;;12.15;;
13222;SDS011;6676;45.192;5.722;2023-02-08T15:21:42;20.05;;;12.53;;
13222;SDS011;6676;45.192;5.722;2023-02-08T15:24:34;16.40;;;12.50;;
13222;SDS011;6676;45.192;5.722;2023-02-08T15:27:26;19.02;;;13.18;;
13222;SDS011;6676;45.192;5.722;2023-02-08T15:30:24;19.15;;;12.35;;
13222;SDS011;6676;45.192;5.722;2023-02-08T15:33:18;18.05;;;12.50;;
13222;SDS011;6676;45.192;5.722;2023-02-08T15:36:14;16.50;;;12.35;;
13222;SDS011;6676;45.192;5.722;2023-02-08T15:39:26;16.10;;;12.03;;
13222;SDS011;6676;45.192;5.722;2023-02-08T15:42:03;15.63;;;12.43;;
13222;SDS011;6676;45.192;5.722;2023-02-08T15:44:56;22.25;;;12.03;;
13222;SDS011;6676;45.192;5.722;2023-02-08T15:47:49;17.55;;;12.15;;
13222;SDS011;6676;45.192;5.722;2023-02-08T15:50:42;16.67;;;11.22;;
13222;SDS011;6676;45.192;5.722;2023-02-08T15:53:33;16.57;;;11.63;;
13222;SDS011;6676;45.192;5.722;2023-02-08T15:56:28;20.80;;;13.58;;
13222;SDS011;6676;45.192;5.722;2023-02-08T15:59:24;16.05;;;11.35;;
13222;SDS011;6676;45.192;5.722;2023-02-08T16:02:22;16.30;;;11.80;;
13222;SDS011;6676;45.192;5.722;2023-02-08T16:05:18;17.27;;;11.25;;
13222;SDS011;6676;45.192;5.722;2023-02-08T16:08:18;18.05;;;11.05;;
13222;SDS011;6676;45.192;5.722;2023-02-08T16:11:14;16.77;;;10.25;;
13222;SDS011;6676;45.192;5.722;2023-02-08T16:14:13;13.08;;;10.38;;
13222;SDS011;6676;45.192;5.722;2023-02-08T16:23:22;17.52;;;10.75;;
13222;SDS011;6676;45.192;5.722;2023-02-08T16:26:16;16.32;;;11.15;;
13222;SDS011;6676;45.192;5.722;2023-02-08T16:29:16;11.75;;;7.15;;
13222;SDS011;6676;45.192;5.722;2023-02-08T16:32:18;10.68;;;5.80;;
13222;SDS011;6676;45.192;5.722;2023-02-08T16:35:13;9.73;;;5.97;;
13222;SDS011;6676;45.192;5.722;2023-02-08T16:38:14;10.20;;;7.05;;
13222;SDS011;6676;45.192;5.722;2023-02-08T16:41:09;14.58;;;7.85;;
13222;SDS011;6676;45.192;5.722;2023-02-08T16:44:16;6.87;;;4.35;;
13222;SDS011;6676;45.192;5.722;2023-02-08T16:47:25;4.42;;;3.08;;
13222;SDS011;6676;45.192;5.722;2023-02-08T16:50:18;16.87;;;8.75;;
13222;SDS011;6676;45.192;5.722;2023-02-08T16:53:12;12.55;;;7.87;;
13222;SDS011;6676;45.192;5.722;2023-02-08T16:56:04;12.33;;;8.03;;
13222;SDS011;6676;45.192;5.722;2023-02-08T16:58:47;7.55;;;4.65;;
13222;SDS011;6676;45.192;5.722;2023-02-08T17:01:38;12.93;;;8.20;;
13222;SDS011;6676;45.192;5.722;2023-02-08T17:04:32;12.98;;;8.58;;
13222;SDS011;6676;45.192;5.722;2023-02-08T17:07:23;18.25;;;11.48;;
13222;SDS011;6676;45.192;5.722;2023-02-08T17:10:19;14.25;;;8.65;;
13222;SDS011;6676;45.192;5.722;2023-02-08T17:13:14;15.50;;;9.75;;
13222;SDS011;6676;45.192;5.722;2023-02-08T17:16:10;12.70;;;8.33;;
13222;SDS011;6676;45.192;5.722;2023-02-08T17:19:09;9.50;;;6.20;;
13222;SDS011;6676;45.192;5.722;2023-02-08T17:22:01;11.28;;;5.65;;
13222;SDS011;6676;45.192;5.722;2023-02-08T17:24:52;9.40;;;5.87;;
13222;SDS011;6676;45.192;5.722;2023-02-08T17:27:45;10.70;;;6.28;;
13222;SDS011;6676;45.192;5.722;2023-02-08T17:30:40;14.03;;;6.78;;
13222;SDS011;6676;45.192;5.722;2023-02-08T17:33:33;15.35;;;7.20;;
13222;SDS011;6676;45.192;5.722;2023-02-08T17:36:28;15.20;;;8.68;;
13222;SDS011;6676;45.192;5.722;2023-02-08T17:39:20;13.30;;;8.43;;
13222;SDS011;6676;45.192;5.722;2023-02-08T17:42:11;15.50;;;9.75;;
13222;SDS011;6676;45.192;5.722;2023-02-08T17:45:03;17.62;;;11.68;;
13222;SDS011;6676;45.192;5.722;2023-02-08T17:47:58;16.85;;;11.70;;
13222;SDS011;6676;45.192;5.722;2023-02-08T17:50:48;15.28;;;10.50;;
13222;SDS011;6676;45.192;5.722;2023-02-08T17:53:41;15.63;;;9.85;;
13222;SDS011;6676;45.192;5.722;2023-02-08T17:56:32;20.25;;;12.10;;
13222;SDS011;6676;45.192;5.722;2023-02-08T17:59:24;16.37;;;10.93;;
13222;SDS011;6676;45.192;5.722;2023-02-08T18:02:15;16.70;;;10.68;;
13222;SDS011;6676;45.192;5.722;2023-02-08T18:05:07;18.80;;;10.40;;
13222;SDS011;6676;45.192;5.722;2023-02-08T18:07:58;19.45;;;11.25;;
13222;SDS011;6676;45.192;5.722;2023-02-08T18:10:50;18.92;;;10.82;;
13222;SDS011;6676;45.192;5.722;2023-02-08T18:13:44;16.50;;;11.38;;
13222;SDS011;6676;45.192;5.722;2023-02-08T18:16:36;18.42;;;11.63;;
13222;SDS011;6676;45.192;5.722;2023-02-08T18:19:27;16.48;;;11.25;;
13222;SDS011;6676;45.192;5.722;2023-02-08T18:22:19;15.85;;;10.82;;
13222;SDS011;6676;45.192;5.722;2023-02-08T18:25:13;15.03;;;10.63;;
13222;SDS011;6676;45.192;5.722;2023-02-08T18:28:05;16.65;;;10.48;;
13222;SDS011;6676;45.192;5.722;2023-02-08T18:31:00;14.35;;;10.28;;
13222;SDS011;6676;45.192;5.722;2023-02-08T18:33:54;15.20;;;10.40;;
13222;SDS011;6676;45.192;5.722;2023-02-08T18:36:54;15.23;;;10.28;;
13222;SDS011;6676;45.192;5.722;2023-02-08T18:39:46;14.18;;;10.45;;
13222;SDS011;6676;45.192;5.722;2023-02-08T18:42:39;18.17;;;10.65;;
13222;SDS011;6676;45.192;5.722;2023-02-08T18:45:30;18.00;;;11.48;;
13222;SDS011;6676;45.192;5.722;2023-02-08T18:48:10;18.32;;;12.05;;
13222;SDS011;6676;45.192;5.722;2023-02-08T18:51:03;18.85;;;12.63;;
13222;SDS011;6676;45.192;5.722;2023-02-08T18:53:56;18.55;;;11.53;;
13222;SDS011;6676;45.192;5.722;2023-02-08T18:56:49;17.40;;;11.73;;
13222;SDS011;6676;45.192;5.722;2023-02-08T18:59:29;21.55;;;11.95;;
13222;SDS011;6676;45.192;5.722;2023-02-08T19:02:22;19.25;;;11.57;;
13222;SDS011;6676;45.192;5.722;2023-02-08T19:05:15;17.90;;;10.78;;
13222;SDS011;6676;45.192;5.722;2023-02-08T19:08:06;17.02;;;11.45;;
13222;SDS011;6676;45.192;5.722;2023-02-08T19:10:58;16.77;;;11.43;;
13222;SDS011;6676;45.192;5.722;2023-02-08T19:13:49;17.70;;;11.97;;
13222;SDS011;6676;45.192;5.722;2023-02-08T19:16:44;18.20;;;12.15;;
13222;SDS011;6676;45.192;5.722;2023-02-08T19:19:38;17.02;;;11.25;;
13222;SDS011;6676;45.192;5.722;2023-02-08T19:22:33;18.42;;;11.00;;
13222;SDS011;6676;45.192;5.722;2023-02-08T19:25:24;15.75;;;11.05;;
13222;SDS011;6676;45.192;5.722;2023-02-08T19:28:16;19.57;;;10.15;;
13222;SDS011;6676;45.192;5.722;2023-02-08T19:31:09;16.82;;;10.85;;
13222;SDS011;6676;45.192;5.722;2023-02-08T19:34:01;17.12;;;11.00;;
13222;SDS011;6676;45.192;5.722;2023-02-08T19:36:54;16.73;;;11.15;;
13222;SDS011;6676;45.192;5.722;2023-02-08T19:39:45;18.57;;;10.95;;
13222;SDS011;6676;45.192;5.722;2023-02-08T19:42:37;18.20;;;11.33;;
13222;SDS011;6676;45.192;5.722;2023-02-08T19:45:30;16.52;;;10.63;;
13222;SDS011;6676;45.192;5.722;2023-02-08T19:48:23;17.98;;;10.93;;
13222;SDS011;6676;45.192;5.722;2023-02-08T19:51:14;15.35;;;10.10;;
13222;SDS011;6676;45.192;5.722;2023-02-08T19:54:07;16.20;;;10.93;;
13222;SDS011;6676;45.192;5.722;2023-02-08T19:57:01;16.12;;;9.83;;
13222;SDS011;6676;45.192;5.722;2023-02-08T19:59:54;15.83;;;11.28;;
13222;SDS011;6676;45.192;5.722;2023-02-08T20:02:51;18.73;;;11.30;;
13222;SDS011;6676;45.192;5.722;2023-02-08T20:05:43;17.87;;;11.53;;
13222;SDS011;6676;45.192;5.722;2023-02-08T20:08:35;21.75;;;11.00;;